Time;durP1;ratioP1;P1;durP2;ratioP2;P2;SDS_P1;SDS_P2;PMS_P1;PMS_P2;Temp;Humidity;BMP_temperature;BMP_pressure;BME280_temperature;BME280_humidity;BME280_pressure;Samples;Min_cycle;Max_cycle;Signal;HPM_P1;HPM_P2
2021/06/01 00:01:25;;;;;;;15.00;6.30;;;16.00;98.20;;;;;;4996206;28;20916;-51
2021/06/01 00:03:51;;;;;;;9.30;5.70;;;15.90;98.60;;;;;;4996076;28;20450;-54
2021/06/01 00:06:17;;;;;;;9.10;5.40;;;15.90;99.10;;;;;;4993611;28;20964;-51
2021/06/01 00:08:45;;;;;;;8.17;6.33;;;15.90;99.90;;;;;;4979096;28;20478;-51
2021/06/01 00:11:13;;;;;;;9.80;5.03;;;15.90;99.90;;;;;;4984189;28;20933;-53
2021/06/01 00:13:39;;;;;;;15.47;6.10;;;15.90;99.90;;;;;;4985328;28;20481;-52
2021/06/01 00:16:06;;;;;;;7.87;5.57;;;15.90;99.90;;;;;;4984649;28;20439;-49
2021/06/01 00:18:33;;;;;;;11.90;6.27;;;15.80;99.90;;;;;;4986137;28;20461;-53
2021/06/01 00:21:00;;;;;;;13.00;6.37;;;15.80;99.90;;;;;;4986586;28;20443;-50
2021/06/01 00:23:26;;;;;;;6.50;5.60;;;15.80;99.90;;;;;;4984587;28;20790;-49
2021/06/01 00:25:53;;;;;;;8.87;6.07;;;15.80;99.90;;;;;;4986013;28;20442;-48
2021/06/01 00:28:20;;;;;;;9.20;6.40;;;15.80;99.90;;;;;;4986120;28;20815;-50
2021/06/01 00:30:46;;;;;;;9.80;6.70;;;15.80;99.90;;;;;;4984677;28;20807;-49
2021/06/01 00:33:13;;;;;;;9.20;6.50;;;15.80;99.90;;;;;;4982851;28;20798;-48
2021/06/01 00:35:42;;;;;;;12.40;7.13;;;15.70;99.90;;;;;;4985919;28;20450;-50
2021/06/01 00:38:08;;;;;;;8.27;6.03;;;15.70;99.90;;;;;;4986958;28;20434;-51
2021/06/01 00:40:35;;;;;;;8.83;6.00;;;15.70;99.90;;;;;;4984285;28;20460;-49
2021/06/01 00:43:01;;;;;;;7.70;5.97;;;15.60;99.90;;;;;;4984071;28;20914;-48
2021/06/01 00:45:29;;;;;;;12.10;7.67;;;15.60;99.90;;;;;;4987494;28;20446;-48
2021/06/01 00:47:55;;;;;;;9.83;7.07;;;15.60;99.90;;;;;;4987042;28;20583;-51
2021/06/01 00:50:23;;;;;;;8.90;6.83;;;15.50;99.90;;;;;;4984473;28;20790;-52
2021/06/01 00:52:50;;;;;;;17.87;9.17;;;15.60;99.90;;;;;;4986142;28;20449;-48
2021/06/01 00:55:17;;;;;;;10.50;6.00;;;15.50;99.90;;;;;;4983183;28;20489;-51
2021/06/01 00:57:46;;;;;;;8.30;5.60;;;15.50;99.90;;;;;;4983959;28;20443;-53
2021/06/01 01:00:29;;;;;;;11.77;6.80;;;15.50;99.90;;;;;;4985491;28;20442;-52
2021/06/01 01:02:57;;;;;;;11.80;6.77;;;15.40;99.90;;;;;;4986259;28;20449;-50
2021/06/01 01:05:25;;;;;;;10.37;6.33;;;15.40;99.90;;;;;;4985986;28;20788;-52
2021/06/01 01:08:06;;;;;;;8.23;5.90;;;15.40;99.90;;;;;;4983092;28;20565;-51
2021/06/01 01:10:36;;;;;;;9.90;6.30;;;15.30;99.90;;;;;;4985824;28;20513;-51
2021/06/01 01:13:06;;;;;;;9.43;6.30;;;15.30;99.90;;;;;;4985501;28;20533;-50
2021/06/01 01:15:35;;;;;;;12.20;6.27;;;15.30;99.90;;;;;;4984228;28;20478;-53
2021/06/01 01:18:07;;;;;;;11.67;6.07;;;15.20;99.90;;;;;;4983658;28;20438;-54
2021/06/01 01:20:37;;;;;;;13.70;7.10;;;15.20;99.90;;;;;;4985106;28;20443;-50
2021/06/01 01:23:11;;;;;;;10.33;7.13;;;15.20;99.90;;;;;;4985550;28;20450;-50
2021/06/01 01:25:47;;;;;;;9.87;5.70;;;15.10;99.90;;;;;;4984533;28;20438;-53
2021/06/01 01:28:28;;;;;;;8.07;5.80;;;15.10;99.90;;;;;;4984528;28;20475;-51
2021/06/01 01:31:00;;;;;;;10.87;6.07;;;15.10;99.90;;;;;;4990070;28;20458;-48
2021/06/01 01:33:34;;;;;;;8.30;5.60;;;15.00;99.90;;;;;;4983224;28;20442;-48
2021/06/01 01:36:03;;;;;;;9.60;6.83;;;15.00;99.90;;;;;;4985222;28;20434;-47
2021/06/01 01:38:31;;;;;;;16.30;6.70;;;15.00;99.90;;;;;;4983694;28;20455;-51
2021/06/01 01:41:00;;;;;;;10.30;5.93;;;15.00;99.90;;;;;;4984311;28;20453;-47
2021/06/01 01:43:30;;;;;;;7.13;6.23;;;15.10;99.90;;;;;;4985301;28;20512;-46
2021/06/01 01:46:04;;;;;;;14.30;6.67;;;15.00;99.90;;;;;;4984792;28;20450;-46
2021/06/01 01:51:19;;;;;;;10.07;6.67;;;15.10;99.90;;;;;;4985535;28;20437;-46
2021/06/01 01:53:50;;;;;;;10.10;6.00;;;15.10;99.90;;;;;;4985369;28;20489;-46
2021/06/01 01:56:19;;;;;;;10.50;7.60;;;15.10;99.90;;;;;;4974500;28;20447;-46
2021/06/01 01:58:46;;;;;;;10.80;5.80;;;15.10;99.90;;;;;;4974765;28;20785;-48
2021/06/01 02:01:13;;;;;;;10.23;7.17;;;15.10;99.90;;;;;;4974601;28;20435;-51
2021/06/01 02:03:42;;;;;;;6.80;6.10;;;15.10;99.90;;;;;;4974524;28;20794;-52
2021/06/01 02:06:09;;;;;;;12.03;7.73;;;15.10;99.90;;;;;;4972060;28;20450;-51
2021/06/01 02:08:38;;;;;;;10.07;6.57;;;15.10;99.90;;;;;;4974526;28;20490;-47
2021/06/01 02:11:04;;;;;;;8.30;5.90;;;15.10;99.90;;;;;;4974199;28;20484;-49
2021/06/01 02:13:32;;;;;;;8.73;7.10;;;15.00;99.90;;;;;;4974783;28;20442;-52
2021/06/01 02:15:58;;;;;;;11.90;5.97;;;15.00;99.90;;;;;;4974438;28;20454;-52
2021/06/01 02:18:24;;;;;;;10.00;7.57;;;15.00;99.90;;;;;;4975081;28;20840;-52
2021/06/01 02:20:54;;;;;;;10.47;6.70;;;15.00;99.90;;;;;;4974902;28;20922;-53
2021/06/01 02:26:19;;;;;;;7.37;5.50;;;15.00;99.90;;;;;;4974970;28;20462;-49
2021/06/01 02:28:48;;;;;;;11.00;6.40;;;15.00;99.90;;;;;;4974598;28;20946;-53
2021/06/01 02:31:19;;;;;;;9.77;6.60;;;15.00;99.90;;;;;;4974963;28;20458;-51
2021/06/01 02:33:47;;;;;;;8.10;6.20;;;15.00;99.90;;;;;;4975811;28;20458;-51
2021/06/01 02:36:17;;;;;;;9.13;6.40;;;15.00;99.90;;;;;;4978708;28;20509;-52
2021/06/01 02:38:44;;;;;;;12.50;6.60;;;14.90;99.90;;;;;;4978371;28;20431;-48
2021/06/01 02:41:11;;;;;;;14.30;7.43;;;14.90;99.90;;;;;;4978319;28;20921;-49
2021/06/01 02:43:37;;;;;;;8.33;6.60;;;14.90;99.90;;;;;;4978405;28;20451;-49
2021/06/01 02:46:04;;;;;;;8.00;6.40;;;14.80;99.90;;;;;;4979642;28;20450;-49
2021/06/01 02:48:31;;;;;;;6.40;5.50;;;14.80;99.90;;;;;;4978710;28;20513;-53
2021/06/01 02:51:13;;;;;;;7.60;6.07;;;14.70;99.90;;;;;;4978330;28;20451;-46
2021/06/01 02:53:42;;;;;;;11.93;6.30;;;14.70;99.90;;;;;;4980135;28;20459;-52
2021/06/01 02:56:11;;;;;;;11.30;6.30;;;14.70;99.90;;;;;;4997645;28;20722;-52
2021/06/01 02:58:39;;;;;;;14.23;6.20;;;14.70;99.90;;;;;;4997454;28;20987;-50
2021/06/01 03:01:11;;;;;;;14.23;5.97;;;14.60;99.90;;;;;;4997800;28;20457;-52
2021/06/01 03:03:37;;;;;;;7.60;6.40;;;14.60;99.90;;;;;;4997331;28;20430;-52
2021/06/01 03:06:05;;;;;;;6.00;5.30;;;14.60;99.90;;;;;;4997352;28;20450;-48
2021/06/01 03:08:31;;;;;;;12.57;6.80;;;14.60;99.90;;;;;;4997252;28;20990;-53
2021/06/01 03:11:03;;;;;;;10.20;6.63;;;14.50;99.90;;;;;;4997327;28;20453;-53
2021/06/01 03:13:30;;;;;;;10.63;6.43;;;14.50;99.90;;;;;;4997559;28;20789;-52
2021/06/01 03:15:56;;;;;;;8.97;5.97;;;14.50;99.90;;;;;;4997047;28;20793;-49
2021/06/01 03:18:23;;;;;;;14.87;6.50;;;14.50;99.90;;;;;;4997065;28;20481;-52
2021/06/01 03:20:49;;;;;;;9.03;6.60;;;14.50;99.90;;;;;;4997111;28;20438;-54
2021/06/01 03:23:16;;;;;;;7.37;5.77;;;14.50;99.90;;;;;;4997244;28;20446;-49
2021/06/01 03:25:44;;;;;;;10.07;6.67;;;14.60;99.90;;;;;;4997206;28;20454;-53
2021/06/01 03:28:12;;;;;;;9.43;7.03;;;14.60;99.90;;;;;;4997099;28;20540;-51
2021/06/01 03:30:39;;;;;;;11.73;7.00;;;14.60;99.90;;;;;;4997222;28;20449;-51
2021/06/01 03:33:05;;;;;;;10.17;6.50;;;14.60;99.90;;;;;;4996983;28;20458;-49
2021/06/01 03:35:32;;;;;;;9.03;7.27;;;14.60;99.90;;;;;;4996939;28;20457;-49
2021/06/01 03:37:59;;;;;;;9.57;6.53;;;14.70;99.90;;;;;;4996651;28;20454;-51
2021/06/01 03:40:25;;;;;;;9.90;6.53;;;14.70;99.90;;;;;;4996836;28;20496;-51
2021/06/01 03:42:52;;;;;;;8.40;5.73;;;14.70;99.90;;;;;;4996658;28;20520;-49
2021/06/01 03:45:22;;;;;;;12.47;6.50;;;14.60;99.90;;;;;;4995577;28;20505;-48
2021/06/01 03:47:48;;;;;;;9.97;6.67;;;14.60;99.90;;;;;;4996720;28;20482;-50
2021/06/01 03:50:17;;;;;;;9.03;6.33;;;14.60;99.90;;;;;;4996872;28;20481;-50
2021/06/01 03:52:43;;;;;;;10.30;8.00;;;14.70;99.90;;;;;;4996553;28;20462;-51
2021/06/01 03:55:10;;;;;;;10.90;6.47;;;14.70;99.90;;;;;;4996439;28;20540;-48
2021/06/01 03:57:39;;;;;;;11.20;7.40;;;14.70;99.90;;;;;;4996580;28;20458;-52
2021/06/01 04:00:07;;;;;;;14.67;7.37;;;14.70;99.90;;;;;;4996512;28;20466;-50
2021/06/01 04:02:35;;;;;;;15.13;6.20;;;14.70;99.90;;;;;;4996363;28;20548;-50
2021/06/01 04:05:01;;;;;;;12.70;7.30;;;14.70;99.90;;;;;;4996369;28;20869;-54
2021/06/01 04:07:27;;;;;;;11.27;7.27;;;14.70;99.90;;;;;;4996439;28;20461;-53
2021/06/01 04:09:53;;;;;;;11.93;7.90;;;14.70;99.90;;;;;;4996108;28;20489;-50
2021/06/01 04:12:20;;;;;;;13.33;6.87;;;14.80;99.90;;;;;;4996147;28;20445;-52
2021/06/01 04:14:46;;;;;;;13.10;7.43;;;14.80;99.90;;;;;;4989152;28;20513;-50
2021/06/01 04:17:12;;;;;;;10.83;7.00;;;14.90;99.90;;;;;;4988555;28;20450;-55
2021/06/01 04:19:39;;;;;;;9.83;6.27;;;14.90;99.90;;;;;;4986642;28;20439;-49
2021/06/01 04:22:06;;;;;;;11.83;7.47;;;14.90;99.90;;;;;;4985253;28;20442;-52
2021/06/01 04:24:32;;;;;;;11.23;8.13;;;15.00;99.90;;;;;;4976557;28;20458;-53
2021/06/01 04:27:00;;;;;;;15.43;7.73;;;15.10;99.90;;;;;;4976694;28;20447;-51
2021/06/01 04:29:27;;;;;;;10.30;7.60;;;15.10;99.90;;;;;;4976496;28;20482;-53
2021/06/01 04:31:55;;;;;;;12.70;8.20;;;15.20;99.90;;;;;;4976834;28;20518;-49
2021/06/01 04:34:21;;;;;;;12.20;8.03;;;15.30;99.90;;;;;;4976577;28;20791;-52
2021/06/01 04:36:49;;;;;;;13.77;7.73;;;15.30;99.90;;;;;;4976923;28;20763;-53
2021/06/01 04:39:15;;;;;;;15.80;8.07;;;15.50;99.90;;;;;;4987141;28;20442;-51
2021/06/01 04:41:41;;;;;;;13.80;8.83;;;15.50;99.90;;;;;;4985197;28;20472;-54
2021/06/01 04:44:08;;;;;;;14.23;7.60;;;15.60;99.90;;;;;;4985092;28;20766;-47
2021/06/01 04:46:34;;;;;;;16.40;7.80;;;15.60;99.90;;;;;;4985611;28;20500;-45
2021/06/01 04:49:01;;;;;;;10.00;6.73;;;15.70;99.90;;;;;;4986869;28;20470;-47
2021/06/01 04:51:27;;;;;;;13.30;8.50;;;15.80;99.90;;;;;;4975970;28;20481;-48
2021/06/01 04:53:56;;;;;;;12.67;8.47;;;15.90;99.90;;;;;;4976258;28;20510;-47
2021/06/01 04:56:23;;;;;;;12.93;7.87;;;16.00;99.90;;;;;;4975807;28;20739;-50
2021/06/01 04:58:49;;;;;;;11.97;7.83;;;16.00;99.90;;;;;;4975946;28;20463;-50
2021/06/01 05:01:15;;;;;;;8.47;6.90;;;16.10;99.90;;;;;;4975976;28;20446;-50
2021/06/01 05:03:42;;;;;;;12.00;7.80;;;16.20;99.90;;;;;;4975727;28;20517;-53
2021/06/01 05:06:09;;;;;;;9.90;7.53;;;16.30;99.90;;;;;;4975692;28;20801;-51
2021/06/01 05:08:37;;;;;;;14.50;8.20;;;16.40;99.90;;;;;;4975837;28;20475;-52
2021/06/01 05:11:05;;;;;;;12.43;8.33;;;16.40;99.90;;;;;;4975685;28;20929;-51
2021/06/01 05:13:32;;;;;;;18.67;9.47;;;16.50;99.90;;;;;;4975835;28;20795;-53
2021/06/01 05:15:58;;;;;;;10.90;7.67;;;16.60;99.90;;;;;;4975449;28;20482;-52
2021/06/01 05:18:24;;;;;;;16.33;7.90;;;16.60;99.90;;;;;;4975489;28;20902;-54
2021/06/01 05:20:50;;;;;;;11.00;8.33;;;16.70;99.90;;;;;;4975459;28;20442;-52
2021/06/01 05:23:17;;;;;;;15.80;9.20;;;16.80;99.90;;;;;;4974471;28;20884;-50
2021/06/01 05:25:44;;;;;;;12.47;8.50;;;16.90;99.90;;;;;;4975552;28;20462;-52
2021/06/01 05:28:12;;;;;;;16.63;8.70;;;16.90;99.90;;;;;;4975033;28;20455;-52
2021/06/01 05:30:41;;;;;;;16.93;8.87;;;17.00;99.90;;;;;;4975113;28;20514;-53
2021/06/01 05:33:17;;;;;;;12.07;8.20;;;17.00;99.90;;;;;;4975062;28;20454;-48
2021/06/01 05:35:51;;;;;;;12.67;8.67;;;16.90;99.90;;;;;;4974840;28;20465;-49
2021/06/01 05:38:17;;;;;;;17.07;8.60;;;17.00;99.90;;;;;;4975507;28;20431;-54
2021/06/01 05:40:44;;;;;;;14.10;7.90;;;17.10;99.90;;;;;;4980373;28;20489;-49
2021/06/01 05:43:11;;;;;;;14.50;8.30;;;17.20;99.90;;;;;;4994719;28;20446;-54
2021/06/01 05:45:37;;;;;;;14.83;8.30;;;17.30;99.90;;;;;;4994414;28;20457;-50
2021/06/01 05:48:05;;;;;;;12.17;8.17;;;17.40;99.90;;;;;;4994464;28;20501;-53
2021/06/01 05:50:31;;;;;;;11.40;8.10;;;17.50;99.90;;;;;;4990932;28;20806;-50
2021/06/01 05:52:59;;;;;;;12.90;7.43;;;17.60;99.90;;;;;;4974958;28;20914;-54
2021/06/01 05:55:25;;;;;;;18.80;9.07;;;17.70;99.90;;;;;;4974737;28;20573;-51
2021/06/01 05:57:51;;;;;;;15.70;7.87;;;17.70;99.90;;;;;;4974573;28;20463;-53
2021/06/01 06:00:23;;;;;;;16.47;9.33;;;17.80;99.90;;;;;;4976656;28;20790;-51
2021/06/01 06:02:49;;;;;;;15.10;8.20;;;17.80;99.90;;;;;;4994598;28;20874;-52
2021/06/01 06:05:15;;;;;;;18.40;8.27;;;17.80;99.90;;;;;;4994367;28;20470;-50
2021/06/01 06:07:42;;;;;;;12.23;7.00;;;17.90;99.90;;;;;;4994120;28;20465;-51
2021/06/01 06:10:09;;;;;;;14.33;7.57;;;17.90;99.90;;;;;;4997593;28;20540;-48
2021/06/01 06:12:36;;;;;;;14.47;8.10;;;17.90;99.90;;;;;;4998244;28;20921;-50
2021/06/01 06:15:03;;;;;;;15.80;7.70;;;17.90;99.90;;;;;;4999402;28;20945;-53
2021/06/01 06:17:34;;;;;;;20.70;7.60;;;18.00;99.90;;;;;;4997795;28;21103;-50
2021/06/01 06:20:01;;;;;;;12.73;6.90;;;18.10;99.90;;;;;;4998337;28;20523;-52
2021/06/01 06:22:28;;;;;;;20.97;8.30;;;18.10;99.90;;;;;;4998073;28;20476;-48
2021/06/01 06:24:54;;;;;;;14.90;8.10;;;18.10;99.90;;;;;;4999073;28;20505;-52
2021/06/01 06:27:20;;;;;;;12.90;8.30;;;18.20;99.90;;;;;;5000658;28;20446;-54
2021/06/01 06:29:47;;;;;;;15.33;7.70;;;18.20;99.90;;;;;;5000890;28;20481;-51
2021/06/01 06:32:13;;;;;;;9.90;7.50;;;18.30;99.90;;;;;;4998171;28;20461;-55
2021/06/01 06:34:41;;;;;;;15.87;7.57;;;18.40;99.90;;;;;;4998027;28;20481;-52
2021/06/01 06:37:09;;;;;;;17.77;8.20;;;18.50;99.90;;;;;;4998413;28;20516;-51
2021/06/01 06:39:35;;;;;;;14.23;7.83;;;18.60;99.90;;;;;;4990854;28;20908;-50
2021/06/01 06:42:03;;;;;;;12.53;8.30;;;18.80;99.90;;;;;;4996952;28;20474;-54
2021/06/01 06:44:29;;;;;;;11.83;7.87;;;18.90;99.90;;;;;;4998269;28;20440;-52
2021/06/01 06:47:18;;;;;;;12.93;6.97;;;19.00;99.90;;;;;;4996865;28;20900;-53
2021/06/01 06:49:46;;;;;;;13.63;7.87;;;19.10;99.90;;;;;;4998011;28;20528;-52
2021/06/01 06:52:12;;;;;;;11.90;7.37;;;19.30;99.90;;;;;;4996322;28;20460;-48
2021/06/01 06:54:39;;;;;;;19.20;8.40;;;19.40;99.90;;;;;;4978016;28;20798;-50
2021/06/01 06:57:07;;;;;;;12.50;7.90;;;19.60;99.90;;;;;;4980121;28;20509;-52
2021/06/01 06:59:33;;;;;;;10.93;8.00;;;19.80;99.90;;;;;;4994959;28;20520;-54
2021/06/01 07:01:59;;;;;;;12.37;7.83;;;20.00;99.90;;;;;;4992814;28;20541;-53
2021/06/01 07:04:25;;;;;;;12.70;7.00;;;20.20;99.90;;;;;;4987943;28;20465;-53
2021/06/01 07:06:53;;;;;;;17.83;6.97;;;20.40;99.90;;;;;;4987475;28;20470;-55
2021/06/01 07:09:20;;;;;;;12.13;7.60;;;20.50;99.90;;;;;;4984820;28;20565;-51
2021/06/01 07:11:46;;;;;;;11.70;8.17;;;20.60;99.90;;;;;;4993167;28;20454;-53
2021/06/01 07:14:31;;;;;;;8.50;7.43;;;20.80;99.90;;;;;;4994929;28;20462;-52
2021/06/01 07:16:57;;;;;;;12.73;7.90;;;21.10;99.90;;;;;;4987110;28;20473;-52
2021/06/01 07:19:23;;;;;;;12.83;8.23;;;21.50;99.90;;;;;;4987306;28;20906;-52
2021/06/01 07:21:49;;;;;;;15.73;8.80;;;22.10;99.90;;;;;;4985811;28;20455;-53
2021/06/01 07:24:17;;;;;;;14.33;8.17;;;23.00;99.90;;;;;;4983320;28;20561;-52
2021/06/01 07:26:43;;;;;;;13.30;8.07;;;23.90;99.90;;;;;;4988888;28;20486;-53
2021/06/01 07:29:10;;;;;;;12.50;7.30;;;25.10;99.90;;;;;;4995978;28;20486;-48
2021/06/01 07:31:36;;;;;;;9.80;7.90;;;26.20;97.90;;;;;;4985883;28;20508;-50
2021/06/01 07:34:03;;;;;;;11.47;7.93;;;27.30;93.20;;;;;;4982883;28;20447;-51
2021/06/01 07:36:32;;;;;;;9.03;8.03;;;28.40;88.10;;;;;;4986044;28;20467;-48
2021/06/01 07:38:58;;;;;;;10.43;6.93;;;29.30;77.90;;;;;;4987244;28;20450;-50
2021/06/01 07:41:28;;;;;;;10.70;6.73;;;30.10;70.90;;;;;;4988826;28;20446;-52
2021/06/01 07:43:58;;;;;;;7.50;6.70;;;30.90;64.90;;;;;;4980909;28;20878;-50
2021/06/01 07:46:24;;;;;;;7.63;6.80;;;31.00;59.80;;;;;;4982784;28;20451;-52
2021/06/01 07:48:51;;;;;;;7.80;5.93;;;30.90;58.70;;;;;;4987983;28;20537;-53
2021/06/01 07:51:27;;;;;;;8.93;6.20;;;30.90;58.40;;;;;;4994174;28;20477;-55
2021/06/01 07:53:54;;;;;;;6.10;5.53;;;30.90;56.70;;;;;;4981965;28;20497;-55
2021/06/01 07:56:20;;;;;;;5.73;5.10;;;30.90;56.80;;;;;;4977371;28;20818;-54
2021/06/01 07:58:48;;;;;;;6.20;5.60;;;30.80;55.90;;;;;;4993655;28;20461;-54
2021/06/01 08:01:16;;;;;;;7.07;5.80;;;30.80;55.00;;;;;;4980234;28;20513;-51
2021/06/01 08:03:43;;;;;;;6.03;5.40;;;31.00;54.50;;;;;;4990996;28;20821;-49
2021/06/01 08:06:09;;;;;;;7.10;5.47;;;31.50;53.80;;;;;;4986209;28;20532;-49
2021/06/01 08:08:35;;;;;;;7.50;5.10;;;32.10;51.50;;;;;;4993953;28;20497;-48
2021/06/01 08:11:02;;;;;;;8.67;6.43;;;32.10;50.70;;;;;;4986363;28;20467;-51
2021/06/01 08:13:28;;;;;;;5.57;5.00;;;32.40;50.10;;;;;;4981163;28;20458;-52
2021/06/01 08:15:56;;;;;;;5.67;5.17;;;32.60;49.60;;;;;;4989019;28;20441;-50
2021/06/01 08:18:25;;;;;;;7.43;5.37;;;32.60;48.10;;;;;;4982401;28;20439;-51
2021/06/01 08:20:57;;;;;;;5.47;4.70;;;32.70;46.90;;;;;;4992595;28;20454;-48
2021/06/01 08:23:24;;;;;;;5.30;4.90;;;32.60;47.90;;;;;;4982556;28;20463;-54
2021/06/01 08:25:50;;;;;;;8.53;4.73;;;32.90;47.20;;;;;;4978539;28;20976;-50
2021/06/01 08:28:16;;;;;;;5.00;4.53;;;32.90;45.60;;;;;;4978049;28;20463;-51
2021/06/01 08:30:43;;;;;;;6.43;5.47;;;33.00;44.80;;;;;;4993134;28;20446;-55
2021/06/01 08:33:11;;;;;;;6.73;5.50;;;33.00;45.10;;;;;;4992363;28;20456;-52
2021/06/01 08:35:37;;;;;;;7.70;5.67;;;33.00;45.40;;;;;;4984257;28;20454;-53
2021/06/01 08:38:03;;;;;;;6.87;5.60;;;32.60;46.30;;;;;;4986052;28;20516;-50
2021/06/01 08:40:30;;;;;;;6.93;5.93;;;32.50;45.10;;;;;;4983806;28;21309;-54
2021/06/01 08:42:56;;;;;;;8.27;5.13;;;32.50;45.30;;;;;;4984903;28;20513;-56
2021/06/01 08:45:22;;;;;;;6.63;5.33;;;32.80;45.00;;;;;;4980443;28;20455;-56
2021/06/01 08:47:53;;;;;;;6.40;5.03;;;32.80;44.50;;;;;;4990180;28;20926;-46
2021/06/01 08:50:21;;;;;;;5.00;4.23;;;32.20;44.30;;;;;;4986926;28;20479;-50
2021/06/01 08:52:47;;;;;;;10.90;4.80;;;31.20;45.20;;;;;;4984949;28;21016;-49
2021/06/01 08:55:14;;;;;;;5.50;4.40;;;30.60;46.20;;;;;;4990154;28;20478;-49
2021/06/01 08:57:41;;;;;;;7.20;4.80;;;30.00;47.60;;;;;;4984337;28;20918;-52
2021/06/01 09:00:10;;;;;;;7.77;4.20;;;29.60;48.90;;;;;;4978257;28;20568;-48
2021/06/01 09:02:36;;;;;;;7.10;4.00;;;29.40;48.50;;;;;;4981722;28;20473;-47
2021/06/01 09:05:06;;;;;;;5.93;5.13;;;29.50;48.90;;;;;;4983184;28;20455;-53
2021/06/01 09:07:47;;;;;;;10.57;4.13;;;30.40;48.60;;;;;;4976028;28;20475;-47
2021/06/01 09:10:35;;;;;;;4.67;4.27;;;31.40;47.50;;;;;;4984875;28;20992;-52
2021/06/01 09:21:35;;;;;;;5.40;4.97;;;33.20;42.40;;;;;;4978658;28;20916;-52
2021/06/01 09:24:04;;;;;;;8.33;6.13;;;32.90;42.80;;;;;;4985629;28;20740;-53
2021/06/01 09:26:48;;;;;;;7.20;5.20;;;32.70;42.80;;;;;;4987149;28;20474;-47
2021/06/01 09:29:15;;;;;;;7.40;4.73;;;32.50;42.80;;;;;;4984514;28;20540;-49
2021/06/01 09:31:41;;;;;;;5.10;4.60;;;32.20;43.50;;;;;;4986810;28;20949;-51
2021/06/01 09:34:08;;;;;;;7.03;4.93;;;31.80;43.20;;;;;;4980599;28;20941;-53
2021/06/01 09:36:34;;;;;;;6.33;5.10;;;31.50;43.20;;;;;;4986995;28;20922;-49
2021/06/01 09:39:07;;;;;;;5.33;4.73;;;31.80;43.90;;;;;;4984859;28;20446;-55
2021/06/01 09:41:33;;;;;;;6.53;4.30;;;32.20;43.10;;;;;;4984324;28;20523;-54
2021/06/01 09:44:01;;;;;;;5.43;4.60;;;32.40;42.60;;;;;;4989110;28;20455;-54
2021/06/01 09:46:28;;;;;;;9.10;5.60;;;32.40;42.70;;;;;;4986333;28;20925;-52
2021/06/01 09:48:56;;;;;;;6.60;4.70;;;32.10;43.40;;;;;;4979948;28;20490;-50
2021/06/01 09:51:27;;;;;;;6.30;4.30;;;31.60;42.40;;;;;;4989763;28;20476;-52
2021/06/01 09:53:55;;;;;;;6.13;4.27;;;31.10;43.30;;;;;;4984850;28;20485;-53
2021/06/01 09:56:23;;;;;;;4.60;4.20;;;30.60;44.60;;;;;;4975640;28;20873;-50
2021/06/01 09:58:52;;;;;;;4.73;4.30;;;30.20;42.90;;;;;;4990231;28;20591;-51
2021/06/01 10:01:18;;;;;;;9.80;4.33;;;29.60;43.70;;;;;;4994438;28;20449;-50
2021/06/01 10:03:48;;;;;;;6.00;5.13;;;29.10;43.80;;;;;;4994680;28;20856;-49
2021/06/01 10:06:14;;;;;;;5.27;4.40;;;28.60;44.20;;;;;;4994507;28;20919;-53
2021/06/01 10:08:45;;;;;;;7.07;4.10;;;28.30;45.40;;;;;;4994356;28;20924;-47
2021/06/01 10:11:12;;;;;;;4.40;3.90;;;27.90;43.90;;;;;;4994345;28;20544;-54
2021/06/01 10:13:42;;;;;;;3.57;3.20;;;27.60;44.30;;;;;;4995192;28;20504;-54
2021/06/01 10:16:11;;;;;;;4.33;3.00;;;27.30;43.70;;;;;;4995136;28;20580;-51
2021/06/01 10:18:40;;;;;;;3.27;2.97;;;27.30;42.40;;;;;;4995074;28;20454;-54
2021/06/01 10:21:08;;;;;;;5.13;3.47;;;27.40;40.60;;;;;;4994834;28;20435;-52
2021/06/01 10:23:36;;;;;;;4.10;3.60;;;27.50;40.60;;;;;;4994840;28;20445;-52
2021/06/01 10:26:05;;;;;;;3.83;2.70;;;27.70;42.00;;;;;;4994932;28;20465;-54
2021/06/01 10:28:33;;;;;;;6.03;4.00;;;28.20;42.00;;;;;;4994134;28;20533;-48
2021/06/01 10:31:04;;;;;;;4.10;3.23;;;28.40;42.50;;;;;;4994330;28;20460;-55
2021/06/01 10:33:36;;;;;;;6.00;2.70;;;28.30;41.60;;;;;;4994467;28;20465;-53
2021/06/01 10:36:16;;;;;;;5.80;3.83;;;27.70;42.50;;;;;;4994310;28;20514;-51
2021/06/01 10:44:45;;;;;;;3.27;2.97;;;27.80;43.20;;;;;;4973964;28;20447;-51
2021/06/01 10:50:32;;;;;;;3.63;2.87;;;27.50;42.50;;;;;;4980192;28;21002;-51
2021/06/01 10:53:15;;;;;;;10.67;3.17;;;27.40;42.20;;;;;;4975276;28;20451;-52
2021/06/01 10:56:06;;;;;;;4.50;3.50;;;27.30;43.00;;;;;;4977695;28;20917;-49
2021/06/01 10:59:11;;;;;;;6.47;4.00;;;27.60;43.90;;;;;;4969427;28;20957;-49
2021/06/01 11:01:50;;;;;;;3.40;3.10;;;27.60;42.40;;;;;;4978341;28;20458;-51
2021/06/01 11:04:21;;;;;;;4.90;3.90;;;27.40;42.80;;;;;;4978222;28;20929;-54
2021/06/01 11:07:25;;;;;;;6.47;4.83;;;27.00;43.70;;;;;;4978186;28;20924;-52
2021/06/01 11:09:51;;;;;;;4.23;3.83;;;26.90;44.40;;;;;;4978297;28;20489;-48
2021/06/01 11:12:43;;;;;;;4.47;3.40;;;26.80;44.40;;;;;;4978440;28;20450;-51
2021/06/01 11:15:30;;;;;;;4.77;4.37;;;26.70;44.80;;;;;;4978579;28;20450;-52
2021/06/01 11:18:17;;;;;;;4.90;3.97;;;26.50;45.40;;;;;;4978975;28;20987;-52
2021/06/01 11:21:20;;;;;;;3.87;3.50;;;26.50;46.00;;;;;;4978512;28;20446;-51
2021/06/01 11:24:18;;;;;;;4.83;4.43;;;26.70;46.60;;;;;;4978355;28;20533;-53
2021/06/01 11:35:41;;;;;;;5.00;2.80;;;26.70;43.80;;;;;;4978072;28;20434;-51
2021/06/01 11:38:16;;;;;;;5.03;3.87;;;26.60;44.80;;;;;;4978224;28;20451;-55
2021/06/01 11:43:37;;;;;;;8.97;3.70;;;26.80;45.50;;;;;;4978039;28;20446;-52
2021/06/01 11:46:09;;;;;;;4.63;4.20;;;26.70;45.50;;;;;;4977718;28;20454;-53
2021/06/01 11:51:30;;;;;;;6.20;3.87;;;26.80;46.00;;;;;;4977925;28;20542;-55
2021/06/01 11:54:03;;;;;;;4.03;3.53;;;26.50;45.80;;;;;;4977261;28;20501;-51
2021/06/01 11:56:41;;;;;;;5.27;3.93;;;26.40;45.90;;;;;;4978060;28;20841;-55
2021/06/01 12:02:03;;;;;;;4.27;3.87;;;26.40;47.00;;;;;;4977764;28;20410;-55
2021/06/01 12:04:55;;;;;;;6.00;3.90;;;26.50;47.40;;;;;;4977816;28;20450;-54
2021/06/01 12:13:17;;;;;;;4.80;4.00;;;26.50;46.30;;;;;;4979863;28;20557;-52
2021/06/01 12:18:32;;;;;;;4.13;3.40;;;26.30;44.20;;;;;;4984053;28;20453;-53
2021/06/01 12:20:59;;;;;;;3.80;2.90;;;26.20;45.30;;;;;;4976616;28;20466;-53
2021/06/01 12:23:28;;;;;;;3.57;3.27;;;26.20;45.30;;;;;;4976737;28;20467;-53
2021/06/01 12:26:07;;;;;;;3.37;3.07;;;26.30;45.20;;;;;;4987199;28;20482;-58
2021/06/01 12:31:23;;;;;;;3.03;2.67;;;26.20;44.00;;;;;;4988489;28;20465;-55
2021/06/01 12:34:00;;;;;;;3.00;2.03;;;26.40;44.30;;;;;;4992083;28;20837;-53
2021/06/01 12:42:40;;;;;;;3.70;3.40;;;26.00;44.10;;;;;;4980888;28;20457;-53
2021/06/01 12:45:33;;;;;;;5.03;2.90;;;26.10;45.40;;;;;;4979374;28;20522;-56
2021/06/01 13:19:24;;;;;;;3.20;2.57;;;26.80;40.30;;;;;;4984672;28;20777;-54
2021/06/01 13:21:55;;;;;;;4.03;2.50;;;26.60;39.20;;;;;;4984075;28;20493;-55
2021/06/01 13:30:30;;;;;;;3.67;3.30;;;26.60;39.90;;;;;;4986220;28;20797;-57
2021/06/01 13:38:33;;;;;;;4.73;2.77;;;27.00;40.00;;;;;;4972372;28;20592;-51
2021/06/01 13:46:27;;;;;;;2.27;1.97;;;27.10;38.80;;;;;;4956989;28;20435;-55
2021/06/01 13:49:07;;;;;;;4.17;2.70;;;27.00;39.00;;;;;;4988557;28;20845;-50
2021/06/01 13:51:43;;;;;;;3.80;2.30;;;27.10;39.60;;;;;;4985018;28;20462;-55
2021/06/01 13:57:00;;;;;;;2.40;2.13;;;27.10;38.70;;;;;;4987714;28;20482;-53
2021/06/01 14:21:59;;;;;;;2.13;1.43;;;26.30;34.80;;;;;;4986070;28;20784;-55
2021/06/01 14:30:12;;;;;;;1.97;1.60;;;25.70;34.80;;;;;;4984728;28;20524;-56
2021/06/01 14:35:53;;;;;;;2.40;1.93;;;25.30;35.30;;;;;;4992496;28;20422;-55
2021/06/01 15:29:02;;;;;;;3.13;2.10;;;25.90;39.50;;;;;;4991877;28;20436;-45
2021/06/01 15:31:44;;;;;;;2.87;2.60;;;25.80;39.70;;;;;;4993121;28;20423;-44
2021/06/01 15:48:12;;;;;;;2.60;2.40;;;25.10;42.00;;;;;;4994682;28;20491;-43
2021/06/01 15:50:44;;;;;;;3.20;2.73;;;25.00;41.50;;;;;;4993636;28;20610;-43
2021/06/01 16:29:42;;;;;;;4.33;3.77;;;23.50;54.00;;;;;;5012154;28;20449;-45
2021/06/01 16:32:23;;;;;;;13.03;5.07;;;23.40;53.90;;;;;;5012525;28;20437;-43
2021/06/01 17:05:39;;;;;;;6.47;5.03;;;22.10;57.90;;;;;;4982595;28;20458;-44
2021/06/01 17:08:35;;;;;;;4.63;3.80;;;22.10;58.40;;;;;;4983326;28;20788;-45
2021/06/01 17:11:07;;;;;;;5.93;4.50;;;22.10;58.10;;;;;;4988483;28;20824;-44
2021/06/01 17:13:38;;;;;;;6.67;3.90;;;22.10;58.30;;;;;;4988538;28;20994;-42
2021/06/01 17:16:06;;;;;;;9.13;3.97;;;22.10;58.50;;;;;;4983014;28;20454;-46
2021/06/01 17:18:53;;;;;;;7.93;4.20;;;22.00;58.60;;;;;;4981906;28;20520;-44
2021/06/01 17:21:51;;;;;;;6.10;3.73;;;22.10;58.70;;;;;;4985977;28;20536;-44
2021/06/01 17:24:28;;;;;;;6.73;4.93;;;22.10;59.00;;;;;;4989302;28;20492;-42
2021/06/01 17:35:12;;;;;;;5.47;4.27;;;22.10;58.20;;;;;;4953590;28;20427;-47
2021/06/01 17:37:39;;;;;;;5.70;3.90;;;22.00;58.10;;;;;;4989407;28;20457;-45